Time;durP1;ratioP1;P1;durP2;ratioP2;P2;SDS_P1;SDS_P2;PMS_P1;PMS_P2;Temp;Humidity;BMP_temperature;BMP_pressure;BME280_temperature;BME280_humidity;BME280_pressure;Samples;Min_cycle;Max_cycle;Signal;HPM_P1;HPM_P2
2020/12/18 00:01:38;;;;;;;20.12;10.55;;;;;;;1.31;88.11;100158.33;1768037;80;21717;-70
2020/12/18 00:04:06;;;;;;;14.78;10.10;;;;;;;1.32;88.12;100156.22;1725092;81;21160;-69
2020/12/18 00:06:36;;;;;;;14.78;10.05;;;;;;;1.35;88.09;100156.36;1772931;81;21156;-69
2020/12/18 00:09:06;;;;;;;14.70;10.50;;;;;;;1.35;88.07;100153.75;1773857;80;21497;-69
2020/12/18 00:11:35;;;;;;;18.10;10.38;;;;;;;1.37;88.03;100149.52;1773599;80;20960;-70
2020/12/18 00:14:03;;;;;;;15.98;10.90;;;;;;;1.37;88.01;100146.92;1773772;81;21455;-69
2020/12/18 00:16:33;;;;;;;17.32;11.18;;;;;;;1.37;87.98;100149.52;1771903;80;21078;-69
2020/12/18 00:19:01;;;;;;;16.00;11.22;;;;;;;1.40;87.95;100150.95;1774000;81;21074;-69
2020/12/18 00:21:29;;;;;;;18.10;12.53;;;;;;;1.40;87.89;100153.56;1773623;81;21315;-69
2020/12/18 00:23:58;;;;;;;16.65;11.20;;;;;;;1.38;87.85;100154.78;1773724;80;21094;-70
2020/12/18 00:26:33;;;;;;;15.28;10.63;;;;;;;1.37;87.84;100159.91;1771832;81;20952;-70
2020/12/18 00:29:02;;;;;;;15.68;10.85;;;;;;;1.35;87.87;100155.95;1743287;82;21094;-70
2020/12/18 00:31:31;;;;;;;13.25;9.63;;;;;;;1.31;87.84;100144.92;1715596;81;21085;-70
2020/12/18 00:34:00;;;;;;;13.75;9.95;;;;;;;1.25;87.86;100135.55;1728937;82;21244;-70
2020/12/18 00:36:28;;;;;;;14.58;9.33;;;;;;;1.23;87.92;100144.98;1734698;81;21500;-69
2020/12/18 00:38:57;;;;;;;12.55;9.38;;;;;;;1.23;87.99;100157.98;1756170;81;20927;-69
2020/12/18 00:41:26;;;;;;;12.55;8.70;;;;;;;1.14;87.95;100151.05;1755278;81;20962;-69
2020/12/18 00:43:54;;;;;;;15.48;10.48;;;;;;;1.10;88.03;100142.63;1733656;82;20947;-69
2020/12/18 00:46:22;;;;;;;13.22;9.85;;;;;;;1.05;88.10;100135.91;1737993;82;21381;-69
2020/12/18 00:48:51;;;;;;;12.68;8.95;;;;;;;1.06;88.18;100138.11;1769807;80;21201;-69
2020/12/18 00:51:20;;;;;;;14.70;9.43;;;;;;;1.07;88.24;100132.09;1768135;81;21543;-69
2020/12/18 00:53:49;;;;;;;13.90;9.43;;;;;;;1.08;88.29;100123.48;1770430;80;20940;-69
2020/12/18 00:56:17;;;;;;;13.75;9.35;;;;;;;1.09;88.36;100122.25;1768023;80;20972;-69
2020/12/18 00:58:47;;;;;;;12.18;8.48;;;;;;;1.10;88.41;100130.94;1770533;81;22255;-69
2020/12/18 01:01:17;;;;;;;11.43;8.43;;;;;;;1.10;88.45;100136.13;1755800;80;21138;-69
2020/12/18 01:03:46;;;;;;;11.78;8.50;;;;;;;1.05;88.42;100135.91;1728230;82;21557;-69
2020/12/18 01:06:14;;;;;;;12.55;8.40;;;;;;;1.01;88.49;100130.50;1804907;79;21220;-69
2020/12/18 01:08:52;;;;;;;12.63;8.85;;;;;;;1.06;88.58;100128.60;1821122;78;22816;-69
2020/12/18 01:11:22;;;;;;;12.53;9.05;;;;;;;0.99;88.63;100126.53;1779816;79;20879;-70
2020/12/18 01:13:51;;;;;;;11.97;8.75;;;;;;;0.98;88.71;100129.95;1777563;79;21833;-69
2020/12/18 01:16:20;;;;;;;12.18;8.63;;;;;;;0.96;88.75;100134.18;1724893;81;21568;-69
2020/12/18 01:18:51;;;;;;;13.25;9.00;;;;;;;0.91;88.79;100134.34;1743003;80;21533;-69
2020/12/18 01:21:22;;;;;;;14.63;9.63;;;;;;;0.88;88.86;100134.19;1742825;80;20942;-69
2020/12/18 01:23:50;;;;;;;13.10;8.45;;;;;;;0.86;88.95;100126.33;1741944;80;21564;-69
2020/12/18 01:26:19;;;;;;;11.73;8.33;;;;;;;0.88;89.06;100111.70;1770753;79;22255;-69
2020/12/18 01:28:49;;;;;;;11.05;8.10;;;;;;;0.93;89.15;100104.13;1771177;79;21591;-69
2020/12/18 01:31:18;;;;;;;12.03;7.87;;;;;;;1.01;89.23;100101.92;1744567;82;21192;-69
2020/12/18 01:33:51;;;;;;;10.38;7.45;;;;;;;1.05;89.25;100106.03;1742124;82;21682;-69
2020/12/18 01:36:20;;;;;;;11.38;8.05;;;;;;;1.09;89.27;100111.86;1768462;79;21021;-69
2020/12/18 01:38:49;;;;;;;11.75;7.90;;;;;;;1.11;89.29;100112.81;1771258;79;21400;-69
2020/12/18 01:41:21;;;;;;;11.33;7.87;;;;;;;1.15;89.29;100108.24;1741796;80;21294;-70
2020/12/18 01:43:53;;;;;;;11.38;7.92;;;;;;;1.19;89.28;100115.77;1742261;82;20907;-69
2020/12/18 01:46:22;;;;;;;12.18;8.23;;;;;;;1.21;89.24;100115.02;1770619;79;21215;-69
2020/12/18 01:48:53;;;;;;;12.78;8.93;;;;;;;1.24;89.25;100119.47;1760005;79;21146;-60
2020/12/18 01:51:25;;;;;;;11.80;8.08;;;;;;;1.24;89.22;100116.46;1724550;81;21471;-69
2020/12/18 01:53:55;;;;;;;13.05;8.75;;;;;;;1.21;89.18;100115.02;1716984;82;21006;-69
2020/12/18 01:56:27;;;;;;;11.83;8.30;;;;;;;1.16;89.16;100111.73;1709230;82;20963;-69
2020/12/18 01:58:58;;;;;;;14.47;8.70;;;;;;;1.11;89.20;100108.92;1723786;81;20961;-70
2020/12/18 02:01:28;;;;;;;12.33;8.55;;;;;;;1.11;89.27;100109.33;1712923;82;21097;-70
2020/12/18 02:04:08;;;;;;;14.30;8.38;;;;;;;1.13;89.37;100112.48;1697234;81;22391;-70
2020/12/18 02:06:39;;;;;;;13.72;9.08;;;;;;;1.17;89.40;100105.72;1713552;82;21172;-70
2020/12/18 02:09:09;;;;;;;12.55;8.90;;;;;;;1.18;89.39;100103.59;1742464;81;21174;-70
2020/12/18 02:11:48;;;;;;;12.58;8.33;;;;;;;1.23;89.45;100092.59;1811376;78;22755;-69
2020/12/18 02:14:19;;;;;;;12.07;8.33;;;;;;;1.24;89.47;100101.28;1787367;79;20896;-70
2020/12/18 02:16:49;;;;;;;13.05;8.85;;;;;;;1.26;89.43;100103.12;1805873;78;21052;-70
2020/12/18 02:19:19;;;;;;;13.38;9.05;;;;;;;1.28;89.41;100108.80;1798657;79;21501;-69
2020/12/18 02:21:50;;;;;;;15.30;9.65;;;;;;;1.28;89.41;100112.70;1795970;79;21014;-69
2020/12/18 02:24:26;;;;;;;12.50;8.28;;;;;;;1.22;89.40;100110.72;1798799;79;20918;-69
2020/12/18 02:26:56;;;;;;;15.45;9.75;;;;;;;1.19;89.42;100119.26;1786110;79;21583;-70
2020/12/18 02:29:26;;;;;;;13.55;9.05;;;;;;;1.18;89.43;100116.59;1817145;79;21398;-70
2020/12/18 02:32:05;;;;;;;13.62;9.13;;;;;;;1.16;89.49;100111.32;1816646;79;21507;-69
2020/12/18 02:34:43;;;;;;;16.70;9.58;;;;;;;1.18;89.57;100108.79;1834536;76;22454;-69
2020/12/18 02:37:14;;;;;;;16.07;9.20;;;;;;;1.14;89.61;100112.96;1724320;81;20934;-69
2020/12/18 02:39:43;;;;;;;13.80;8.65;;;;;;;1.14;89.69;100106.88;1715127;82;21218;-69
2020/12/18 02:42:14;;;;;;;15.23;9.63;;;;;;;1.14;89.75;100110.77;1724017;81;21077;-69
2020/12/18 02:44:53;;;;;;;15.30;10.05;;;;;;;1.16;89.83;100099.62;1810122;78;22516;-70
2020/12/18 02:47:40;;;;;;;13.85;9.05;;;;;;;1.08;89.90;100098.80;1807046;79;20911;-70
2020/12/18 02:50:11;;;;;;;14.30;8.68;;;;;;;1.06;89.99;100111.72;1807360;78;22374;-70
2020/12/18 02:52:43;;;;;;;14.47;9.50;;;;;;;1.08;90.10;100109.19;1808040;79;20923;-70
2020/12/18 02:55:30;;;;;;;14.95;9.50;;;;;;;1.06;90.19;100108.23;1809110;78;21010;-71
2020/12/18 02:58:10;;;;;;;14.55;9.20;;;;;;;1.04;90.26;100109.45;1807037;78;21480;-71
2020/12/18 03:00:49;;;;;;;14.23;9.13;;;;;;;1.07;90.35;100104.81;1824196;78;22360;-70
2020/12/18 03:03:20;;;;;;;15.72;9.43;;;;;;;1.01;90.39;100110.61;1724936;81;20934;-70
2020/12/18 03:05:51;;;;;;;13.75;9.15;;;;;;;1.02;90.45;100108.90;1725181;80;21413;-70
2020/12/18 03:08:27;;;;;;;20.05;10.00;;;;;;;0.98;90.52;100115.66;1744131;80;21709;-69
2020/12/18 03:10:57;;;;;;;14.90;9.03;;;;;;;0.90;90.59;100116.97;1715712;82;21663;-70
2020/12/18 03:13:26;;;;;;;15.65;9.08;;;;;;;0.83;90.70;100113.20;1725212;81;21075;-69
2020/12/18 03:15:55;;;;;;;14.40;9.50;;;;;;;0.81;90.82;100109.64;1715035;82;21148;-69
2020/12/18 03:18:26;;;;;;;21.10;10.70;;;;;;;0.76;90.93;100099.44;1724745;81;22197;-69
2020/12/18 03:20:57;;;;;;;19.20;10.08;;;;;;;0.77;91.12;100096.02;1716912;82;21537;-69
2020/12/18 03:23:38;;;;;;;17.90;10.30;;;;;;;0.84;91.30;100097.20;1819205;78;22251;-69
2020/12/18 03:26:08;;;;;;;16.55;10.40;;;;;;;0.83;91.43;100091.53;1655732;85;21525;-69
2020/12/18 03:28:52;;;;;;;16.02;8.48;;;;;;;0.90;91.59;100084.50;1837023;76;22356;-69
2020/12/18 03:31:21;;;;;;;19.20;10.08;;;;;;;0.88;91.76;100092.63;1796889;78;21595;-70
2020/12/18 03:33:50;;;;;;;16.73;8.88;;;;;;;0.87;91.90;100095.64;1777460;79;22245;-69
2020/12/18 03:36:36;;;;;;;14.73;10.13;;;;;;;0.92;92.06;100091.55;1811691;77;22813;-69
2020/12/18 03:39:07;;;;;;;15.90;10.15;;;;;;;0.88;92.20;100093.52;1777258;79;21060;-70
2020/12/18 03:41:37;;;;;;;18.35;9.15;;;;;;;0.85;92.35;100094.68;1803877;78;21488;-69
2020/12/18 03:44:06;;;;;;;19.12;10.05;;;;;;;0.83;92.45;100094.13;1809536;78;21618;-63
2020/12/18 03:46:37;;;;;;;17.87;10.28;;;;;;;0.79;92.57;100094.80;1780291;79;20914;-68
2020/12/18 03:49:14;;;;;;;17.40;9.58;;;;;;;0.78;92.69;100098.21;1776644;79;21710;-66
2020/12/18 03:51:47;;;;;;;20.40;10.00;;;;;;;0.77;92.82;100093.83;1722462;81;21599;-67
2020/12/18 03:54:17;;;;;;;19.98;10.20;;;;;;;0.77;92.97;100097.73;1714102;83;21928;-67
2020/12/18 03:56:48;;;;;;;17.60;10.38;;;;;;;0.79;93.07;100095.69;1708547;83;21006;-64
2020/12/18 03:59:35;;;;;;;20.52;10.32;;;;;;;0.84;93.19;100092.01;1802972;77;20974;-69
2020/12/18 04:02:05;;;;;;;20.72;9.70;;;;;;;0.80;93.24;100101.77;1759184;80;21527;-67
2020/12/18 04:04:34;;;;;;;16.85;9.18;;;;;;;0.79;93.29;100098.69;1778623;79;21350;-63
2020/12/18 04:07:04;;;;;;;15.93;9.63;;;;;;;0.78;93.36;100100.41;1776343;80;21574;-68
2020/12/18 04:09:32;;;;;;;17.05;10.18;;;;;;;0.81;93.46;100099.66;1770123;80;20958;-67
2020/12/18 04:12:02;;;;;;;24.27;10.68;;;;;;;0.81;93.53;100100.55;1750150;80;21067;-68
2020/12/18 04:14:40;;;;;;;20.12;9.35;;;;;;;0.86;93.66;100095.16;1827736;76;22963;-69
2020/12/18 04:17:11;;;;;;;16.57;9.38;;;;;;;0.82;93.75;100104.92;1801233;79;20918;-71
2020/12/18 04:19:40;;;;;;;15.18;9.45;;;;;;;0.83;93.84;100100.62;1798734;78;22370;-66
2020/12/18 04:22:08;;;;;;;16.93;10.65;;;;;;;0.83;93.95;100097.61;1788587;78;21591;-66
2020/12/18 04:25:05;;;;;;;22.58;10.30;;;;;;;0.85;94.07;100096.39;1837205;78;22789;-66
2020/12/18 04:27:35;;;;;;;17.32;9.88;;;;;;;0.79;94.15;100109.97;1788109;79;21907;-68
2020/12/18 04:30:05;;;;;;;15.32;9.38;;;;;;;0.81;94.28;100107.03;1751511;79;21201;-67
2020/12/18 04:32:35;;;;;;;17.87;9.85;;;;;;;0.82;94.39;100096.24;1728566;81;20958;-63
2020/12/18 04:35:03;;;;;;;17.73;10.38;;;;;;;0.82;94.54;100101.03;1698452;83;20963;-64
2020/12/18 04:37:50;;;;;;;17.75;9.25;;;;;;;0.82;94.64;100098.84;1719335;82;21568;-65
2020/12/18 04:40:43;;;;;;;17.73;9.38;;;;;;;0.85;94.77;100095.09;1824372;78;22483;-63
2020/12/18 04:43:14;;;;;;;19.55;9.70;;;;;;;0.78;94.87;100091.31;1763514;80;20918;-62
2020/12/18 04:45:43;;;;;;;18.65;9.85;;;;;;;0.75;94.96;100095.06;1785334;79;22106;-67
2020/12/18 04:48:13;;;;;;;16.20;9.30;;;;;;;0.72;95.10;100102.70;1787548;78;21200;-65
2020/12/18 04:50:43;;;;;;;17.23;9.95;;;;;;;0.69;95.21;100097.36;1796097;79;21363;-67
2020/12/18 04:53:28;;;;;;;18.23;9.85;;;;;;;0.73;95.31;100096.70;1836767;78;22264;-65
2020/12/18 04:56:10;;;;;;;20.12;9.90;;;;;;;0.69;95.41;100101.67;1807500;79;21005;-65
2020/12/18 04:58:42;;;;;;;17.35;9.90;;;;;;;0.69;95.51;100101.67;1808402;78;22269;-65
2020/12/18 05:01:11;;;;;;;18.25;9.58;;;;;;;0.69;95.59;100106.45;1809456;79;21611;-65
2020/12/18 05:03:47;;;;;;;16.57;9.25;;;;;;;0.70;95.63;100104.75;1808387;79;20895;-66
2020/12/18 05:06:17;;;;;;;19.62;10.38;;;;;;;0.70;95.70;100113.42;1809499;79;21476;-65
2020/12/18 05:08:46;;;;;;;16.25;8.90;;;;;;;0.70;95.73;100111.23;1809635;79;21469;-65
2020/12/18 05:11:26;;;;;;;16.35;8.93;;;;;;;0.72;95.80;100110.91;1809485;78;22033;-65
2020/12/18 05:13:56;;;;;;;14.58;9.00;;;;;;;0.79;95.85;100110.38;1808280;78;21029;-63
2020/12/18 05:16:24;;;;;;;15.85;9.33;;;;;;;0.81;95.90;100111.34;1809500;79;21464;-64
2020/12/18 05:19:04;;;;;;;18.60;9.88;;;;;;;0.87;95.93;100110.34;1787215;79;21773;-65
2020/12/18 05:21:43;;;;;;;13.70;8.53;;;;;;;0.95;95.97;100118.12;1837228;77;22267;-65
2020/12/18 05:24:13;;;;;;;14.63;8.83;;;;;;;0.91;95.99;100112.26;1779195;78;21010;-65
2020/12/18 05:26:44;;;;;;;12.85;7.45;;;;;;;0.92;95.98;100109.73;1779681;79;22154;-65
2020/12/18 05:29:13;;;;;;;18.92;8.85;;;;;;;0.89;95.96;100101.80;1809509;79;21552;-65
2020/12/18 05:32:03;;;;;;;17.37;9.33;;;;;;;0.92;95.98;100111.03;1842287;77;22324;-64
2020/12/18 05:34:33;;;;;;;16.75;9.33;;;;;;;0.83;95.98;100112.30;1815152;78;21053;-65
2020/12/18 05:37:20;;;;;;;17.52;8.83;;;;;;;0.80;96.01;100111.75;1817441;78;23511;-64
2020/12/18 05:39:50;;;;;;;16.55;8.70;;;;;;;0.78;96.01;100111.20;1805348;77;21479;-62
2020/12/18 05:42:21;;;;;;;16.42;8.78;;;;;;;0.78;96.08;100117.28;1728859;80;21475;-64
2020/12/18 05:44:50;;;;;;;16.00;8.40;;;;;;;0.75;96.12;100121.44;1785356;79;21464;-64
2020/12/18 05:47:27;;;;;;;13.95;8.93;;;;;;;0.81;96.18;100123.03;1842286;78;22177;-64
2020/12/18 05:49:56;;;;;;;19.40;9.65;;;;;;;0.79;96.23;100124.66;1810424;79;20906;-64
2020/12/18 05:52:26;;;;;;;15.78;8.10;;;;;;;0.80;96.28;100127.34;1817275;79;21464;-64
2020/12/18 05:54:56;;;;;;;12.58;7.60;;;;;;;0.82;96.34;100130.00;1815765;78;20931;-65
2020/12/18 05:57:26;;;;;;;13.95;8.25;;;;;;;0.84;96.38;100130.97;1817565;79;20922;-65
2020/12/18 05:59:56;;;;;;;18.35;8.40;;;;;;;0.85;96.42;100126.25;1784059;79;20946;-65
2020/12/18 06:02:29;;;;;;;18.25;8.35;;;;;;;0.87;96.45;100131.11;1812648;78;21440;-64
2020/12/18 06:04:57;;;;;;;12.60;7.62;;;;;;;0.88;96.46;100131.59;1784058;79;22381;-65
2020/12/18 06:07:27;;;;;;;15.30;8.68;;;;;;;0.89;96.48;100131.67;1812493;79;21242;-64
2020/12/18 06:10:06;;;;;;;20.60;8.70;;;;;;;0.92;96.46;100135.71;1775536;79;20937;-64
2020/12/18 06:12:48;;;;;;;19.52;9.33;;;;;;;1.01;96.51;100139.19;1842312;77;22690;-64
2020/12/18 06:15:18;;;;;;;16.85;8.83;;;;;;;0.97;96.54;100139.86;1817575;79;21100;-64
2020/12/18 06:17:46;;;;;;;18.42;9.15;;;;;;;0.99;96.56;100145.13;1817467;79;21414;-64
2020/12/18 06:20:15;;;;;;;14.43;8.40;;;;;;;0.93;96.58;100141.39;1817483;79;21056;-64
2020/12/18 06:22:58;;;;;;;16.48;8.13;;;;;;;0.86;96.56;100144.52;1817492;78;21425;-65
2020/12/18 06:25:28;;;;;;;14.93;8.60;;;;;;;0.84;96.64;100152.64;1812720;79;20914;-67
2020/12/18 06:28:15;;;;;;;14.90;9.18;;;;;;;0.83;96.70;100148.67;1817581;79;22130;-64
2020/12/18 06:31:26;;;;;;;15.05;8.60;;;;;;;0.83;96.75;100152.56;1761176;79;22379;-65
2020/12/18 06:34:05;;;;;;;14.50;8.40;;;;;;;0.86;96.81;100157.91;1812512;79;20926;-65
2020/12/18 06:36:57;;;;;;;17.45;8.28;;;;;;;0.87;96.90;100160.58;1812438;79;21005;-64
2020/12/18 06:39:43;;;;;;;;;;;;;;;0.87;96.94;100164.88;1820237;79;21135;-64
2020/12/18 06:42:20;;;;;;;15.03;8.33;;;;;;;0.84;97.01;100159.13;1812461;79;20133;-65
2020/12/18 06:45:00;;;;;;;15.72;8.15;;;;;;;0.80;97.07;100161.51;1745065;82;22246;-64
2020/12/18 06:47:30;;;;;;;16.70;9.20;;;;;;;0.73;97.13;100166.81;1744998;81;21096;-65
2020/12/18 06:50:17;;;;;;;14.60;7.72;;;;;;;0.69;97.14;100172.67;1744953;80;21565;-65
2020/12/18 06:53:16;;;;;;;12.37;8.15;;;;;;;0.73;97.24;100163.33;1837226;78;22418;-64
2020/12/18 06:55:55;;;;;;;15.95;8.40;;;;;;;0.71;97.31;100167.14;1808609;79;21006;-65
2020/12/18 06:58:33;;;;;;;14.58;8.13;;;;;;;0.72;97.39;100169.33;1808113;78;21360;-65
2020/12/18 07:01:02;;;;;;;14.35;8.15;;;;;;;0.71;97.45;100168.84;1809390;78;20895;-66
2020/12/18 07:03:39;;;;;;;15.13;8.35;;;;;;;0.70;97.52;100168.37;1809459;78;20922;-66
2020/12/18 07:06:15;;;;;;;14.20;8.33;;;;;;;0.69;97.60;100167.89;1809369;78;21010;-67
2020/12/18 07:08:44;;;;;;;14.87;7.72;;;;;;;0.68;97.68;100168.70;1809473;79;21001;-64
2020/12/18 07:11:14;;;;;;;12.15;7.95;;;;;;;0.70;97.77;100163.17;1720408;79;22181;-65
2020/12/18 07:13:50;;;;;;;14.53;7.83;;;;;;;0.74;97.85;100173.78;1809524;79;21087;-66
2020/12/18 07:16:26;;;;;;;17.23;8.53;;;;;;;0.75;97.92;100173.38;1809420;78;21465;-65
2020/12/18 07:18:59;;;;;;;19.67;8.20;;;;;;;0.74;98.00;100171.19;1809377;78;21148;-66
2020/12/18 07:21:28;;;;;;;15.18;7.72;;;;;;;0.71;98.09;100167.55;1809419;79;20871;-64
2020/12/18 07:23:56;;;;;;;13.32;7.45;;;;;;;0.69;98.16;100164.88;1809491;78;22111;-64
2020/12/18 07:26:26;;;;;;;16.97;8.00;;;;;;;0.69;98.24;100167.89;1809355;79;21013;-65
2020/12/18 07:28:55;;;;;;;11.40;7.50;;;;;;;0.67;98.32;100168.22;1809411;79;21636;-65
2020/12/18 07:31:25;;;;;;;15.68;8.38;;;;;;;0.63;98.41;100164.17;1809456;79;21014;-65
2020/12/18 07:33:58;;;;;;;13.10;7.60;;;;;;;0.63;98.49;100168.06;1809524;78;21590;-65
2020/12/18 07:36:28;;;;;;;13.53;7.67;;;;;;;0.64;98.57;100167.66;1809512;79;21603;-63
2020/12/18 07:38:57;;;;;;;12.80;7.67;;;;;;;0.65;98.67;100166.84;1809344;79;21002;-64
2020/12/18 07:41:29;;;;;;;16.25;8.23;;;;;;;0.64;98.76;100168.95;1809424;78;21030;-64
2020/12/18 07:44:06;;;;;;;11.97;7.45;;;;;;;0.65;98.84;100173.34;1809408;78;21018;-65
2020/12/18 07:46:36;;;;;;;13.15;8.05;;;;;;;0.69;98.93;100172.67;1809435;78;20914;-66
2020/12/18 07:49:10;;;;;;;15.18;8.33;;;;;;;0.70;99.04;100175.75;1809511;79;22081;-66
2020/12/18 07:51:39;;;;;;;13.70;7.45;;;;;;;0.70;99.12;100168.37;1806735;79;20947;-65
2020/12/18 07:54:08;;;;;;;14.53;6.92;;;;;;;0.71;99.19;100174.94;1798453;79;21485;-65
2020/12/18 07:56:38;;;;;;;26.12;7.80;;;;;;;0.75;99.30;100176.86;1798378;79;20919;-65
2020/12/18 07:59:08;;;;;;;12.75;7.17;;;;;;;0.76;99.36;100175.16;1798492;79;21061;-65
2020/12/18 08:01:36;;;;;;;14.90;7.87;;;;;;;0.76;99.44;100169.56;1793002;78;22316;-63
2020/12/18 14:46:33;;;;;;;18.77;12.10;;;;;;;2.82;97.42;100134.23;1791835;79;22820;-70
2020/12/18 14:49:02;;;;;;;18.30;12.03;;;;;;;2.76;97.34;100137.90;1789079;80;20910;-71
2020/12/18 14:51:30;;;;;;;18.15;11.85;;;;;;;2.75;97.25;100136.13;1773740;80;22109;-71
2020/12/18 14:53:59;;;;;;;14.40;10.45;;;;;;;2.75;97.18;100137.42;1763786;81;21084;-71
2020/12/18 14:56:28;;;;;;;18.25;10.90;;;;;;;2.77;97.07;100138.38;1763846;81;20930;-69
2020/12/18 14:58:56;;;;;;;15.50;10.93;;;;;;;2.78;96.98;100141.87;1758844;81;20989;-69
2020/12/18 15:01:25;;;;;;;19.12;10.80;;;;;;;2.78;96.88;100147.97;1757821;81;21578;-69
2020/12/18 15:03:56;;;;;;;16.00;10.58;;;;;;;2.77;96.79;100135.77;1757817;81;21145;-70
2020/12/18 15:06:25;;;;;;;14.78;10.30;;;;;;;2.78;96.68;100144.47;1757912;80;21018;-65
2020/12/18 15:08:54;;;;;;;18.02;12.50;;;;;;;2.79;96.60;100135.83;1758098;80;21652;-73
2020/12/18 15:11:22;;;;;;;17.98;11.97;;;;;;;2.80;96.49;100137.61;1761701;80;20900;-73
2020/12/18 15:13:50;;;;;;;19.73;11.63;;;;;;;2.79;96.36;100138.44;1732237;81;20978;-74
2020/12/18 15:16:20;;;;;;;14.40;9.50;;;;;;;2.79;96.22;100143.65;1709922;83;22306;-66
2020/12/18 15:18:49;;;;;;;13.35;8.83;;;;;;;2.75;96.06;100137.84;1715465;82;21315;-73
2020/12/18 15:21:17;;;;;;;12.18;7.60;;;;;;;2.73;95.90;100134.28;1732322;81;20908;-72
2020/12/18 15:23:47;;;;;;;12.47;7.65;;;;;;;2.73;95.73;100132.56;1739468;81;20954;-72
2020/12/18 15:26:16;;;;;;;14.03;8.08;;;;;;;2.72;95.58;100136.41;1733649;81;20948;-73
2020/12/18 15:28:47;;;;;;;11.33;7.78;;;;;;;2.71;95.42;100136.82;1729402;82;21379;-73
2020/12/18 15:31:16;;;;;;;13.38;9.38;;;;;;;2.71;95.33;100136.82;1732805;81;20980;-60
2020/12/18 15:33:45;;;;;;;13.20;8.55;;;;;;;2.71;95.24;100134.63;1732307;81;21111;-61
2020/12/18 15:36:20;;;;;;;11.90;8.65;;;;;;;2.71;95.13;100122.91;1703699;83;21085;-72
2020/12/18 15:38:51;;;;;;;12.88;9.00;;;;;;;2.72;94.99;100129.48;1710429;83;20993;-72
2020/12/18 15:41:20;;;;;;;12.35;8.53;;;;;;;2.70;94.87;100127.64;1702474;83;22299;-70
2020/12/18 15:43:49;;;;;;;14.35;9.60;;;;;;;2.68;94.73;100123.67;1710411;83;21666;-75
2020/12/18 15:46:22;;;;;;;14.58;9.63;;;;;;;2.67;94.58;100129.71;1690693;83;21493;-74
2020/12/18 15:48:53;;;;;;;14.00;9.73;;;;;;;2.64;94.46;100129.59;1717781;82;20976;-74
2020/12/18 15:51:26;;;;;;;11.38;8.13;;;;;;;2.61;94.34;100120.76;1716555;83;21098;-74
2020/12/18 15:54:01;;;;;;;12.65;8.85;;;;;;;2.58;94.23;100121.94;1721921;82;21696;-74
2020/12/18 15:56:33;;;;;;;14.30;9.85;;;;;;;2.54;94.11;100119.63;1727723;80;21174;-74
2020/12/18 15:59:09;;;;;;;14.65;9.78;;;;;;;2.52;94.08;100126.48;1748273;80;21035;-73
2020/12/18 16:01:40;;;;;;;15.03;10.00;;;;;;;2.51;94.08;100124.70;1752552;80;21007;-74
2020/12/18 16:04:10;;;;;;;15.63;10.25;;;;;;;2.51;94.02;100129.91;1748156;80;21121;-73
2020/12/18 16:06:40;;;;;;;18.15;10.53;;;;;;;2.52;93.97;100129.97;1750100;80;22331;-74
2020/12/18 16:09:11;;;;;;;17.52;10.98;;;;;;;2.52;93.86;100123.88;1712723;82;21051;-74
2020/12/18 16:11:40;;;;;;;15.00;10.20;;;;;;;2.51;93.76;100131.22;1750219;80;21668;-74
2020/12/18 16:14:13;;;;;;;17.73;10.20;;;;;;;2.50;93.68;100125.11;1746729;80;21161;-73
2020/12/18 16:16:44;;;;;;;15.13;10.80;;;;;;;2.48;93.59;100126.77;1726867;80;21148;-73
2020/12/18 16:19:14;;;;;;;14.90;9.43;;;;;;;2.48;93.49;100121.97;1711382;82;21207;-73
2020/12/18 16:21:50;;;;;;;;;;;;;;;2.48;93.41;100121.56;1750760;80;21220;-74
2020/12/18 16:24:16;;;;;;;19.42;12.45;;;;;;;2.48;93.32;100125.88;1747843;80;20289;-74
2020/12/18 16:26:45;;;;;;;21.17;12.60;;;;;;;2.47;93.26;100118.48;1748965;80;21223;-72
2020/12/18 16:29:15;;;;;;;17.05;10.95;;;;;;;2.46;93.22;100118.00;1747904;80;21056;-73
2020/12/18 16:31:49;;;;;;;15.50;10.43;;;;;;;2.48;93.16;100121.56;1714984;82;21213;-73
2020/12/18 16:34:19;;;;;;;16.90;11.70;;;;;;;2.48;93.08;100120.26;1753438;80;21058;-73
2020/12/18 16:36:50;;;;;;;17.67;11.28;;;;;;;2.47;93.02;100108.06;1759038;80;21174;-72
2020/12/18 16:39:18;;;;;;;17.17;11.50;;;;;;;2.48;92.94;100108.95;1751148;80;21026;-71
2020/12/18 16:41:47;;;;;;;16.60;10.88;;;;;;;2.49;92.88;100108.13;1751999;80;21079;-71
2020/12/18 16:44:15;;;;;;;16.32;11.65;;;;;;;2.51;92.81;100112.56;1715264;82;22107;-71
2020/12/18 16:46:45;;;;;;;23.70;15.18;;;;;;;2.51;92.71;100108.66;1754869;80;21580;-71
2020/12/18 16:49:14;;;;;;;24.12;15.38;;;;;;;2.49;92.60;100112.92;1757012;80;21286;-69
2020/12/18 16:51:44;;;;;;;20.92;12.68;;;;;;;2.49;92.51;100115.94;1753805;80;21173;-69
2020/12/18 16:54:15;;;;;;;18.90;12.82;;;;;;;2.47;92.41;100114.98;1751490;80;21201;-72
2020/12/18 16:56:47;;;;;;;18.50;12.63;;;;;;;2.47;92.34;100117.59;1749613;80;21213;-61
2020/12/18 16:59:18;;;;;;;19.35;13.20;;;;;;;2.46;92.28;100118.00;1751343;80;21031;-70
2020/12/18 17:01:50;;;;;;;20.55;14.43;;;;;;;2.43;92.23;100114.38;1751837;80;21561;-71
2020/12/18 17:04:21;;;;;;;18.02;12.82;;;;;;;2.40;92.16;100116.45;1759115;80;21144;-64
2020/12/18 17:06:52;;;;;;;17.40;12.85;;;;;;;2.39;92.09;100116.38;1756008;80;21182;-73
2020/12/18 17:09:21;;;;;;;16.57;12.55;;;;;;;2.38;91.99;100114.19;1755920;80;21504;-72
2020/12/18 17:11:57;;;;;;;17.50;11.65;;;;;;;2.36;91.92;100110.60;1760093;80;21184;-72
2020/12/18 17:14:28;;;;;;;18.62;12.53;;;;;;;2.35;91.84;100111.84;1751651;82;21614;-73
2020/12/18 17:17:01;;;;;;;15.30;10.78;;;;;;;2.31;91.76;100108.22;1755879;80;21140;-71
2020/12/18 17:19:31;;;;;;;15.72;10.68;;;;;;;2.31;91.74;100109.94;1751627;82;21184;-71
2020/12/18 17:22:06;;;;;;;17.73;10.72;;;;;;;2.32;91.67;100116.51;1751662;80;21439;-72
2020/12/18 17:24:38;;;;;;;18.02;11.10;;;;;;;2.31;91.62;100111.23;1749938;82;21179;-73
2020/12/18 17:27:12;;;;;;;18.60;11.97;;;;;;;2.29;91.56;100109.88;1715404;83;21175;-70
2020/12/18 17:29:42;;;;;;;17.40;12.15;;;;;;;2.29;91.52;100113.77;1755857;80;21049;-71
2020/12/18 17:32:15;;;;;;;17.57;12.30;;;;;;;2.28;91.47;100113.30;1724632;82;21181;-73
2020/12/18 17:34:47;;;;;;;17.77;13.65;;;;;;;2.29;91.41;100121.59;1758207;80;22321;-69
2020/12/18 17:37:17;;;;;;;18.95;14.25;;;;;;;2.28;91.33;100116.31;1752119;82;21137;-69
2020/12/18 17:39:48;;;;;;;19.48;13.35;;;;;;;2.24;91.27;100117.90;1760424;80;21116;-70
2020/12/18 17:42:18;;;;;;;20.20;13.70;;;;;;;2.23;91.25;100116.53;1756017;80;21544;-70
2020/12/18 17:44:49;;;;;;;23.30;16.50;;;;;;;2.23;91.19;100116.13;1751657;82;21164;-70
2020/12/18 17:47:20;;;;;;;27.48;18.65;;;;;;;2.26;91.17;100119.27;1711652;83;21392;-70
2020/12/18 17:49:50;;;;;;;32.30;19.45;;;;;;;2.26;91.12;100116.66;1748225;80;21479;-69
2020/12/18 17:52:21;;;;;;;31.48;19.55;;;;;;;2.25;91.07;100110.98;1713684;82;20949;-69
2020/12/18 17:54:55;;;;;;;30.30;18.27;;;;;;;2.26;91.08;100117.55;1745276;80;21146;-69
2020/12/18 17:57:25;;;;;;;28.98;18.50;;;;;;;2.29;91.04;100115.08;1752219;80;21164;-71
2020/12/18 17:59:55;;;;;;;25.35;18.20;;;;;;;2.30;91.01;100110.34;1752091;80;22232;-69
2020/12/18 18:02:26;;;;;;;29.18;18.57;;;;;;;2.32;90.99;100114.31;1702978;83;21180;-70
2020/12/18 18:04:57;;;;;;;25.27;17.17;;;;;;;2.31;90.96;100114.73;1745344;80;21118;-69
2020/12/18 18:07:28;;;;;;;26.42;17.00;;;;;;;2.31;90.93;100117.33;1712694;82;21042;-69
2020/12/18 18:09:58;;;;;;;25.97;16.87;;;;;;;2.33;90.88;100116.98;1751260;80;21157;-69
2020/12/18 18:12:30;;;;;;;25.25;16.42;;;;;;;2.35;90.85;100115.75;1712796;82;21489;-69
2020/12/18 18:15:02;;;;;;;22.87;16.05;;;;;;;2.36;90.83;100117.11;1748496;80;21164;-68
2020/12/18 18:17:34;;;;;;;22.07;16.10;;;;;;;2.37;90.81;100118.92;1748023;80;21014;-68
2020/12/18 18:20:03;;;;;;;24.63;15.55;;;;;;;2.38;90.76;100119.40;1745577;81;21126;-68
2020/12/18 18:22:31;;;;;;;23.55;16.48;;;;;;;2.38;90.71;100112.89;1743673;82;21609;-69
2020/12/18 18:25:01;;;;;;;22.22;15.63;;;;;;;2.38;90.64;100115.50;1712684;82;21397;-68
2020/12/18 18:27:35;;;;;;;22.40;14.95;;;;;;;2.37;90.60;100116.32;1752927;80;21251;-68